Time;durP1;ratioP1;P1;durP2;ratioP2;P2;SDS_P1;SDS_P2;PMS_P1;PMS_P2;Temp;Humidity;BMP_temperature;BMP_pressure;BME280_temperature;BME280_humidity;BME280_pressure;Samples;Min_cycle;Max_cycle;Signal;HPM_P1;HPM_P2
2022/07/01 00:00:22;;;;;;;0.50;0.50;;;;;15.60;98366.00;;;;5115477;28;20189;-79
2022/07/01 00:02:49;;;;;;;0.50;0.50;;;;;15.60;98376.00;;;;5115729;28;20206;-79
2022/07/01 00:05:16;;;;;;;0.50;0.50;;;;;15.70;98392.00;;;;5115520;28;20641;-79
2022/07/01 00:07:43;;;;;;;0.50;0.50;;;;;15.60;98396.00;;;;5115410;28;20218;-79
2022/07/01 00:10:13;;;;;;;0.40;0.40;;;;;15.70;98388.00;;;;5115588;28;20270;-80
2022/07/01 00:12:42;;;;;;;0.40;0.40;;;;;15.70;98393.00;;;;5097556;28;20206;-81
2022/07/01 00:15:11;;;;;;;10.23;0.73;;;;;15.70;98389.00;;;;5115374;28;20225;-78
2022/07/01 00:17:39;;;;;;;0.70;0.70;;;;;15.60;98390.00;;;;5115409;28;20202;-80
2022/07/01 00:20:07;;;;;;;0.50;0.50;;;;;15.80;98389.00;;;;5115215;28;20194;-79
2022/07/01 00:22:35;;;;;;;0.40;0.40;;;;;15.70;98373.00;;;;5115423;28;20286;-80
2022/07/01 00:25:02;;;;;;;0.60;0.60;;;;;15.70;98378.00;;;;5115372;28;20194;-79
2022/07/01 00:27:29;;;;;;;0.47;0.47;;;;;15.70;98388.00;;;;5115048;28;20217;-80
2022/07/01 00:29:58;;;;;;;0.50;0.50;;;;;15.70;98397.00;;;;5097218;28;20209;-80
2022/07/01 00:32:25;;;;;;;0.40;0.40;;;;;15.70;98401.00;;;;5115002;28;20210;-80
2022/07/01 00:34:52;;;;;;;0.60;0.60;;;;;15.60;98404.00;;;;5115075;28;20241;-79
2022/07/01 00:37:19;;;;;;;0.50;0.50;;;;;15.60;98399.00;;;;5114892;28;20197;-78
2022/07/01 00:39:46;;;;;;;0.40;0.40;;;;;15.80;98406.00;;;;5115236;28;20193;-78
2022/07/01 00:42:13;;;;;;;0.60;0.60;;;;;15.60;98410.00;;;;5114994;28;20204;-78
2022/07/01 00:44:42;;;;;;;0.70;0.70;;;;;15.50;98409.00;;;;5114802;28;20206;-79
2022/07/01 00:47:12;;;;;;;0.40;0.40;;;;;15.30;98403.00;;;;5114706;28;20198;-80
2022/07/01 00:49:39;;;;;;;0.47;0.47;;;;;15.30;98385.00;;;;5114854;28;20591;-80
2022/07/01 00:52:08;;;;;;;0.50;0.50;;;;;15.20;98383.00;;;;5114929;28;20198;-80
2022/07/01 00:54:37;;;;;;;0.60;0.60;;;;;15.10;98379.00;;;;5114597;28;20230;-79
2022/07/01 00:57:08;;;;;;;0.60;0.60;;;;;15.20;98380.00;;;;5114410;28;20225;-80
2022/07/01 00:59:35;;;;;;;0.40;0.40;;;;;15.40;98394.00;;;;5114602;28;20205;-77
2022/07/01 01:02:06;;;;;;;0.40;0.40;;;;;15.40;98397.00;;;;5114918;28;20240;-79
2022/07/01 01:04:35;;;;;;;2.80;0.90;;;;;15.30;98383.00;;;;5114576;28;20204;-75
2022/07/01 01:07:02;;;;;;;0.73;0.73;;;;;15.30;98380.00;;;;5114850;28;20217;-79
2022/07/01 01:09:30;;;;;;;0.50;0.50;;;;;15.30;98374.00;;;;5114415;28;20182;-78
2022/07/01 01:11:58;;;;;;;0.67;0.67;;;;;15.10;98373.00;;;;5114393;28;20205;-78
2022/07/01 01:14:27;;;;;;;0.50;0.50;;;;;15.10;98364.00;;;;5096506;28;20639;-78
2022/07/01 01:16:54;;;;;;;0.60;0.60;;;;;15.20;98366.00;;;;5114364;28;20210;-78
2022/07/01 01:19:21;;;;;;;0.40;0.40;;;;;15.00;98369.00;;;;5114893;28;20255;-78
2022/07/01 01:21:48;;;;;;;0.40;0.40;;;;;15.10;98363.00;;;;5114133;28;20224;-77
2022/07/01 01:24:15;;;;;;;0.50;0.50;;;;;15.20;98365.00;;;;5114197;28;20649;-79
2022/07/01 01:26:44;;;;;;;0.97;0.97;;;;;15.30;98361.00;;;;5096228;28;20216;-79
2022/07/01 01:29:11;;;;;;;0.60;0.60;;;;;15.30;98354.00;;;;5114216;28;20186;-79
2022/07/01 01:31:38;;;;;;;1.50;1.43;;;;;15.20;98354.00;;;;5114606;28;20202;-79
2022/07/01 01:34:05;;;;;;;0.40;0.40;;;;;15.20;98351.00;;;;5115330;28;20286;-80
2022/07/01 01:36:31;;;;;;;0.50;0.50;;;;;15.20;98344.00;;;;5114735;28;20185;-79
2022/07/01 01:39:05;;;;;;;0.40;0.40;;;;;15.10;98342.00;;;;5114603;28;20209;-78
2022/07/01 01:41:31;;;;;;;0.47;0.47;;;;;15.40;98342.00;;;;5114641;28;20214;-79
2022/07/01 01:43:58;;;;;;;0.43;0.43;;;;;15.30;98350.00;;;;5114963;28;20216;-79
2022/07/01 01:46:25;;;;;;;0.50;0.50;;;;;15.40;98352.00;;;;5113982;28;20186;-78
2022/07/01 01:48:52;;;;;;;0.40;0.40;;;;;15.30;98345.00;;;;5113940;28;20208;-76
2022/07/01 01:51:19;;;;;;;0.47;0.47;;;;;15.30;98343.00;;;;5113865;28;20539;-76
2022/07/01 01:53:46;;;;;;;0.50;0.50;;;;;15.30;98346.00;;;;5113968;28;20229;-78
2022/07/01 01:56:13;;;;;;;0.60;0.60;;;;;15.30;98334.00;;;;5113913;28;20202;-79
2022/07/01 01:58:42;;;;;;;0.60;0.60;;;;;15.30;98330.00;;;;5116470;28;20563;-80
2022/07/01 02:01:09;;;;;;;0.50;0.50;;;;;15.20;98317.00;;;;5114621;28;20222;-79
2022/07/01 02:03:37;;;;;;;0.50;0.50;;;;;15.20;98303.00;;;;5113737;28;20243;-79
2022/07/01 02:06:04;;;;;;;0.60;0.60;;;;;15.20;98295.00;;;;5113862;28;20663;-79
2022/07/01 02:08:31;;;;;;;0.33;0.33;;;;;15.10;98290.00;;;;5113640;28;20209;-80
2022/07/01 02:10:59;;;;;;;0.50;0.50;;;;;15.00;98286.00;;;;5117295;28;20190;-79
2022/07/01 02:13:26;;;;;;;0.50;0.50;;;;;15.00;98293.00;;;;5117008;28;20214;-79
2022/07/01 02:15:53;;;;;;;0.50;0.50;;;;;15.10;98282.00;;;;5117162;28;20225;-77
2022/07/01 02:18:20;;;;;;;0.57;0.57;;;;;15.00;98286.00;;;;5117278;28;20190;-79
2022/07/01 02:20:47;;;;;;;0.50;0.50;;;;;15.00;98268.00;;;;5116907;28;20355;-79
2022/07/01 02:23:14;;;;;;;0.50;0.50;;;;;14.90;98265.00;;;;5117102;28;20282;-79
2022/07/01 02:25:42;;;;;;;1.10;1.10;;;;;15.00;98267.00;;;;5116997;28;20193;-79
2022/07/01 02:28:09;;;;;;;0.90;0.90;;;;;15.00;98268.00;;;;5098805;28;20553;-78
2022/07/01 02:30:37;;;;;;;0.60;0.60;;;;;15.00;98266.00;;;;5116935;28;20258;-79
2022/07/01 02:33:05;;;;;;;0.80;0.80;;;;;15.10;98264.00;;;;5116738;28;20604;-79
2022/07/01 02:35:35;;;;;;;0.40;0.40;;;;;15.00;98280.00;;;;5116831;28;20217;-79
2022/07/01 02:38:03;;;;;;;0.70;0.70;;;;;14.90;98275.00;;;;5116805;28;20190;-79
2022/07/01 02:40:30;;;;;;;0.67;0.67;;;;;14.90;98266.00;;;;5098665;28;20614;-78
2022/07/01 02:42:57;;;;;;;0.60;0.60;;;;;15.00;98268.00;;;;5116774;28;20209;-79
2022/07/01 02:45:25;;;;;;;0.50;0.50;;;;;14.90;98283.00;;;;5116661;28;20190;-79
2022/07/01 02:47:52;;;;;;;0.50;0.50;;;;;14.80;98286.00;;;;5116397;28;20250;-77
2022/07/01 02:50:20;;;;;;;0.40;0.40;;;;;14.80;98289.00;;;;5116596;28;20206;-79
2022/07/01 02:52:49;;;;;;;0.50;0.50;;;;;14.70;98290.00;;;;5116495;28;20206;-79
2022/07/01 02:55:18;;;;;;;0.50;0.50;;;;;14.60;98295.00;;;;5116596;28;20536;-79
2022/07/01 02:57:48;;;;;;;0.40;0.40;;;;;14.80;98290.00;;;;5116751;28;20196;-79
2022/07/01 03:00:16;;;;;;;0.50;0.50;;;;;14.60;98291.00;;;;5116340;28;20282;-79
2022/07/01 03:02:43;;;;;;;0.50;0.50;;;;;14.60;98302.00;;;;5116370;28;20193;-78
2022/07/01 03:05:13;;;;;;;0.57;0.57;;;;;14.50;98293.00;;;;5116324;28;20668;-78
2022/07/01 03:07:40;;;;;;;0.50;0.50;;;;;14.60;98296.00;;;;5098286;28;20221;-78
2022/07/01 03:10:08;;;;;;;0.60;0.60;;;;;14.80;98290.00;;;;5098318;28;20232;-78
2022/07/01 03:12:35;;;;;;;0.67;0.67;;;;;14.70;98287.00;;;;5116092;28;20625;-77
2022/07/01 03:15:04;;;;;;;0.50;0.50;;;;;14.60;98293.00;;;;5116125;28;20367;-75
2022/07/01 03:17:32;;;;;;;0.50;0.50;;;;;14.70;98311.00;;;;5116138;28;20201;-78
2022/07/01 03:20:00;;;;;;;0.60;0.60;;;;;14.60;98298.00;;;;5115733;28;20525;-77
2022/07/01 03:22:29;;;;;;;0.60;0.60;;;;;14.60;98306.00;;;;5116061;28;20186;-78
2022/07/01 03:24:57;;;;;;;0.40;0.40;;;;;14.60;98309.00;;;;5116020;28;20205;-75
2022/07/01 03:27:24;;;;;;;0.60;0.60;;;;;14.60;98314.00;;;;5115994;28;20217;-77
2022/07/01 03:29:52;;;;;;;0.43;0.43;;;;;14.70;98305.00;;;;5115924;28;20190;-78
2022/07/01 03:32:19;;;;;;;0.40;0.40;;;;;14.60;98292.00;;;;5115923;28;20694;-79
2022/07/01 03:34:48;;;;;;;0.50;0.50;;;;;14.70;98298.00;;;;5115853;28;20221;-79
2022/07/01 03:37:16;;;;;;;0.43;0.43;;;;;14.60;98321.00;;;;5116003;28;20200;-76
2022/07/01 03:39:46;;;;;;;0.50;0.50;;;;;14.70;98339.00;;;;5115795;28;20198;-77
2022/07/01 03:42:16;;;;;;;0.40;0.40;;;;;14.70;98341.00;;;;5115828;28;20210;-76
2022/07/01 03:44:44;;;;;;;0.50;0.50;;;;;14.50;98349.00;;;;5115682;28;20194;-77
2022/07/01 03:47:11;;;;;;;0.90;0.90;;;;;14.50;98355.00;;;;5115556;28;20225;-78
2022/07/01 03:49:38;;;;;;;0.70;0.70;;;;;14.60;98358.00;;;;5115722;28;20660;-79
2022/07/01 03:52:06;;;;;;;0.50;0.50;;;;;14.60;98362.00;;;;5097653;28;20235;-78
2022/07/01 03:54:33;;;;;;;0.60;0.60;;;;;14.50;98369.00;;;;5097469;28;20727;-79
2022/07/01 03:57:05;;;;;;;0.53;0.53;;;;;14.60;98374.00;;;;5116015;28;20300;-78
2022/07/01 03:59:37;;;;;;;0.50;0.50;;;;;14.50;98381.00;;;;5115669;28;20201;-77
2022/07/01 04:02:05;;;;;;;0.60;0.60;;;;;14.60;98398.00;;;;5115879;28;20233;-75
2022/07/01 04:04:33;;;;;;;0.60;0.60;;;;;14.60;98401.00;;;;5115560;28;20221;-78
2022/07/01 04:07:04;;;;;;;0.40;0.40;;;;;14.70;98402.00;;;;5115412;28;20301;-78
2022/07/01 04:09:32;;;;;;;0.50;0.50;;;;;14.70;98410.00;;;;5115534;28;20244;-79
2022/07/01 04:12:03;;;;;;;0.50;0.50;;;;;14.70;98397.00;;;;5115296;28;20296;-79
2022/07/01 04:14:30;;;;;;;0.50;0.50;;;;;14.80;98414.00;;;;5115212;28;20241;-79
2022/07/01 04:17:00;;;;;;;0.50;0.50;;;;;14.90;98419.00;;;;5115399;28;20288;-78
2022/07/01 04:19:27;;;;;;;0.43;0.43;;;;;15.00;98432.00;;;;5115374;28;20311;-79
2022/07/01 04:24:41;;;;;;;0.40;0.40;;;;;14.80;98441.00;;;;5115582;28;20281;-79
2022/07/01 04:27:09;;;;;;;0.60;0.60;;;;;14.70;98456.00;;;;5115541;28;20217;-80
2022/07/01 04:29:36;;;;;;;0.40;0.40;;;;;14.50;98454.00;;;;5115178;28;20209;-79
2022/07/01 04:32:05;;;;;;;0.50;0.50;;;;;14.60;98452.00;;;;5114512;28;20490;-79
2022/07/01 04:34:32;;;;;;;0.40;0.40;;;;;14.50;98458.00;;;;5114854;28;20214;-80
2022/07/01 04:37:01;;;;;;;0.50;0.50;;;;;14.50;98455.00;;;;5114894;28;20343;-79
2022/07/01 04:39:28;;;;;;;0.80;0.80;;;;;14.70;98457.00;;;;5115131;28;20198;-79
2022/07/01 04:42:01;;;;;;;0.50;0.50;;;;;14.70;98461.00;;;;5114998;28;20240;-80
2022/07/01 04:44:32;;;;;;;0.50;0.50;;;;;14.70;98466.00;;;;5114953;28;20640;-76
2022/07/01 04:46:59;;;;;;;0.73;0.73;;;;;14.60;98465.00;;;;5114873;28;20222;-79
2022/07/01 04:49:26;;;;;;;0.50;0.50;;;;;14.80;98468.00;;;;5114941;28;20194;-80
2022/07/01 04:51:53;;;;;;;0.50;0.50;;;;;14.70;98473.00;;;;5115010;28;20205;-79
2022/07/01 04:54:20;;;;;;;0.93;0.93;;;;;14.80;98467.00;;;;5114671;28;20251;-79
2022/07/01 04:56:47;;;;;;;0.80;0.80;;;;;14.70;98479.00;;;;5114548;28;20190;-79
2022/07/01 04:59:15;;;;;;;0.43;0.43;;;;;14.70;98474.00;;;;5114621;28;20609;-78
2022/07/01 05:01:48;;;;;;;0.60;0.60;;;;;14.60;98464.00;;;;5114393;28;20194;-79
2022/07/01 05:04:15;;;;;;;0.60;0.60;;;;;14.60;98462.00;;;;5114447;28;20715;-79
2022/07/01 05:06:42;;;;;;;0.57;0.57;;;;;14.70;98462.00;;;;5114534;28;20241;-79
2022/07/01 05:09:11;;;;;;;0.70;0.70;;;;;14.60;98465.00;;;;5115307;28;20205;-78
2022/07/01 05:11:39;;;;;;;0.60;0.60;;;;;14.90;98464.00;;;;5115306;28;20266;-78
2022/07/01 05:14:08;;;;;;;0.53;0.53;;;;;14.80;98479.00;;;;5115218;28;20239;-78
2022/07/01 05:16:36;;;;;;;0.70;0.70;;;;;14.70;98481.00;;;;5114661;28;20205;-78
2022/07/01 05:21:59;;;;;;;0.50;0.50;;;;;14.70;98475.00;;;;5114274;28;20697;-80
2022/07/01 05:24:28;;;;;;;0.50;0.50;;;;;14.70;98447.00;;;;5114234;28;20203;-79
2022/07/01 05:26:55;;;;;;;0.50;0.50;;;;;14.70;98480.00;;;;5119959;28;20225;-78
2022/07/01 05:29:22;;;;;;;0.50;0.50;;;;;14.50;98476.00;;;;5114219;28;20251;-79
2022/07/01 05:31:49;;;;;;;0.60;0.60;;;;;14.80;98477.00;;;;5114049;28;20186;-80
2022/07/01 05:34:17;;;;;;;0.40;0.40;;;;;14.70;98470.00;;;;5114304;28;20225;-79
2022/07/01 05:36:43;;;;;;;0.97;0.97;;;;;14.70;98473.00;;;;5114382;28;20213;-79
2022/07/01 05:39:11;;;;;;;0.80;0.80;;;;;14.60;98470.00;;;;5114068;28;20539;-74
2022/07/01 05:41:38;;;;;;;0.60;0.60;;;;;14.80;98474.00;;;;5113896;28;20186;-74
2022/07/01 05:44:07;;;;;;;0.60;0.60;;;;;14.80;98476.00;;;;5114690;28;20232;-75
2022/07/01 05:46:34;;;;;;;6.60;1.17;;;;;14.90;98473.00;;;;5117514;28;20628;-76
2022/07/01 05:49:01;;;;;;;0.40;0.40;;;;;14.90;98473.00;;;;5117429;28;20200;-76
2022/07/01 05:51:28;;;;;;;0.63;0.63;;;;;14.90;98474.00;;;;5117484;28;20668;-76
2022/07/01 05:53:56;;;;;;;0.40;0.40;;;;;15.00;98469.00;;;;5120397;28;20221;-77
2022/07/01 05:56:23;;;;;;;0.57;0.57;;;;;15.10;98466.00;;;;5119939;28;20669;-77
2022/07/01 05:58:52;;;;;;;0.60;0.60;;;;;15.00;98468.00;;;;5117262;28;20208;-79
2022/07/01 06:01:19;;;;;;;0.50;0.50;;;;;15.00;98473.00;;;;5099263;28;20232;-82
2022/07/01 06:03:46;;;;;;;0.70;0.70;;;;;15.10;98481.00;;;;5117330;28;20209;-79
2022/07/01 06:06:13;;;;;;;0.50;0.50;;;;;15.10;98486.00;;;;5117194;28;20319;-80
2022/07/01 06:08:43;;;;;;;0.60;0.60;;;;;15.10;98482.00;;;;5117167;28;20190;-81
2022/07/01 06:11:10;;;;;;;0.50;0.50;;;;;15.10;98475.00;;;;5117386;28;20186;-82
2022/07/01 06:13:36;;;;;;;1.50;1.03;;;;;14.90;98479.00;;;;5117095;28;20214;-80
2022/07/01 06:16:04;;;;;;;1.20;1.20;;;;;15.00;98497.00;;;;5117190;28;20186;-80
2022/07/01 06:18:32;;;;;;;0.50;0.50;;;;;14.90;98501.00;;;;5117181;28;20236;-80
2022/07/01 06:20:58;;;;;;;0.50;0.50;;;;;15.00;98504.00;;;;5117171;28;20198;-80
2022/07/01 06:23:25;;;;;;;0.60;0.60;;;;;15.10;98503.00;;;;5116897;28;20221;-83
2022/07/01 06:25:53;;;;;;;0.50;0.50;;;;;14.90;98508.00;;;;5116933;28;20198;-82
2022/07/01 06:28:19;;;;;;;0.60;0.60;;;;;14.90;98507.00;;;;5116766;28;20495;-81
2022/07/01 06:30:49;;;;;;;0.40;0.40;;;;;14.90;98509.00;;;;5116864;28;20202;-79
2022/07/01 06:33:15;;;;;;;0.70;0.70;;;;;14.80;98520.00;;;;5116759;28;20193;-81
2022/07/01 06:35:44;;;;;;;0.50;0.50;;;;;14.90;98514.00;;;;5116847;28;20217;-81
2022/07/01 06:38:11;;;;;;;0.53;0.53;;;;;15.00;98525.00;;;;5099046;28;20698;-78
2022/07/01 06:40:38;;;;;;;0.60;0.60;;;;;14.90;98523.00;;;;5116726;28;20198;-82
2022/07/01 06:43:08;;;;;;;3.63;1.17;;;;;14.90;98522.00;;;;5116703;28;20194;-81
2022/07/01 06:45:34;;;;;;;0.57;0.57;;;;;15.00;98519.00;;;;5118013;28;20200;-79
2022/07/01 06:48:03;;;;;;;0.50;0.50;;;;;15.20;98524.00;;;;5098771;28;20202;-82
2022/07/01 06:50:29;;;;;;;0.77;0.77;;;;;15.20;98518.00;;;;5116614;28;20524;-81
2022/07/01 06:52:56;;;;;;;0.70;0.70;;;;;15.20;98518.00;;;;5116569;28;20640;-80
2022/07/01 06:55:23;;;;;;;0.90;0.90;;;;;15.10;98519.00;;;;5115870;28;20228;-82
2022/07/01 06:57:52;;;;;;;0.50;0.50;;;;;15.20;98524.00;;;;5116557;28;20649;-80
2022/07/01 07:00:22;;;;;;;0.47;0.47;;;;;15.10;98521.00;;;;5116457;28;20218;-79
2022/07/01 07:02:49;;;;;;;0.40;0.40;;;;;15.20;98530.00;;;;5116421;28;20204;-82
2022/07/01 07:05:18;;;;;;;1.37;1.27;;;;;15.20;98530.00;;;;5116343;28;20251;-83
2022/07/01 07:07:45;;;;;;;0.73;0.73;;;;;15.20;98531.00;;;;5116394;28;20232;-82
2022/07/01 07:10:12;;;;;;;0.50;0.50;;;;;15.40;98536.00;;;;5116328;28;20648;-83
2022/07/01 07:12:38;;;;;;;0.40;0.40;;;;;15.40;98548.00;;;;5116299;28;20190;-81
2022/07/01 07:15:06;;;;;;;0.60;0.60;;;;;15.20;98547.00;;;;5116144;28;20218;-80
2022/07/01 07:17:34;;;;;;;0.80;0.80;;;;;15.30;98551.00;;;;5116098;28;20308;-81
2022/07/01 07:20:01;;;;;;;0.43;0.43;;;;;15.20;98541.00;;;;5116146;28;20205;-82
2022/07/01 07:22:27;;;;;;;0.50;0.50;;;;;15.40;98555.00;;;;5116087;28;20217;-83
2022/07/01 07:24:54;;;;;;;0.83;0.83;;;;;15.20;98562.00;;;;5116146;28;20227;-82
2022/07/01 07:27:21;;;;;;;0.60;0.60;;;;;15.40;98551.00;;;;5116047;28;20300;-81
2022/07/01 07:29:48;;;;;;;0.70;0.70;;;;;15.30;98559.00;;;;5116101;28;20190;-81
2022/07/01 07:32:15;;;;;;;0.60;0.60;;;;;15.10;98554.00;;;;5117909;28;20186;-82
2022/07/01 07:34:42;;;;;;;0.73;0.73;;;;;15.10;98559.00;;;;5119867;28;20240;-80
2022/07/01 07:37:12;;;;;;;0.67;0.67;;;;;15.30;98568.00;;;;5119217;28;20617;-82
2022/07/01 07:39:39;;;;;;;0.73;0.73;;;;;15.20;98576.00;;;;5118883;28;20224;-80
2022/07/01 07:42:06;;;;;;;0.70;0.70;;;;;15.30;98582.00;;;;5119742;28;20657;-78
2022/07/01 07:44:32;;;;;;;0.50;0.50;;;;;15.30;98573.00;;;;5119234;28;20221;-81
2022/07/01 07:47:00;;;;;;;0.80;0.80;;;;;15.30;98561.00;;;;5117730;28;20524;-81
2022/07/01 07:49:29;;;;;;;0.70;0.70;;;;;15.50;98558.00;;;;5127889;28;20222;-82
2022/07/01 07:51:56;;;;;;;0.60;0.60;;;;;15.60;98541.00;;;;5119878;28;20202;-81
2022/07/01 07:54:23;;;;;;;2.70;2.00;;;;;15.60;98551.00;;;;5115470;28;20222;-81
2022/07/01 07:56:50;;;;;;;0.60;0.60;;;;;15.50;98555.00;;;;5097702;28;20198;-78
2022/07/01 07:59:17;;;;;;;0.50;0.50;;;;;15.50;98557.00;;;;5115556;28;20228;-80
2022/07/01 08:01:47;;;;;;;0.70;0.70;;;;;15.30;98561.00;;;;5115542;28;20697;-81
2022/07/01 08:04:14;;;;;;;0.60;0.60;;;;;15.30;98557.00;;;;5115503;28;20220;-81
2022/07/01 08:06:41;;;;;;;0.60;0.60;;;;;15.50;98560.00;;;;5114213;28;20206;-81
2022/07/01 08:09:08;;;;;;;0.67;0.67;;;;;15.40;98570.00;;;;5115404;28;20338;-79
2022/07/01 08:11:35;;;;;;;0.47;0.47;;;;;15.20;98568.00;;;;5097471;28;20540;-78
2022/07/01 08:14:02;;;;;;;0.67;0.67;;;;;15.30;98580.00;;;;5117926;28;20274;-79
2022/07/01 08:16:29;;;;;;;0.70;0.70;;;;;15.40;98582.00;;;;5116344;28;20229;-81
2022/07/01 08:18:58;;;;;;;0.83;0.83;;;;;15.50;98591.00;;;;5115265;28;20570;-82
2022/07/01 08:21:25;;;;;;;1.77;1.40;;;;;15.40;98600.00;;;;5115109;28;20185;-81
2022/07/01 08:23:52;;;;;;;0.50;0.50;;;;;15.40;98595.00;;;;5115432;28;20277;-82
2022/07/01 08:26:20;;;;;;;0.50;0.50;;;;;15.60;98595.00;;;;5115108;28;20193;-81
2022/07/01 08:28:49;;;;;;;0.40;0.40;;;;;15.60;98600.00;;;;5115043;28;20206;-80
2022/07/01 08:31:16;;;;;;;0.40;0.40;;;;;15.70;98600.00;;;;5114999;28;20189;-77
2022/07/01 08:33:43;;;;;;;0.60;0.60;;;;;15.60;98600.00;;;;5114844;28;20214;-78
2022/07/01 08:36:13;;;;;;;0.93;0.93;;;;;15.60;98612.00;;;;5114927;28;20213;-79
2022/07/01 08:38:40;;;;;;;0.67;0.67;;;;;15.60;98596.00;;;;5114856;28;20226;-79
2022/07/01 08:41:07;;;;;;;0.70;0.70;;;;;15.70;98602.00;;;;5114886;28;20205;-80
2022/07/01 08:43:35;;;;;;;0.50;0.50;;;;;15.80;98607.00;;;;5114834;28;20291;-80
2022/07/01 08:46:03;;;;;;;0.80;0.80;;;;;15.80;98622.00;;;;5114823;28;20194;-81
2022/07/01 08:48:30;;;;;;;0.50;0.50;;;;;15.80;98629.00;;;;5114724;28;20218;-81
2022/07/01 08:50:57;;;;;;;2.43;1.47;;;;;15.70;98629.00;;;;5114702;28;20805;-80
2022/07/01 08:53:24;;;;;;;0.57;0.57;;;;;15.60;98633.00;;;;5114514;28;20257;-79
2022/07/01 08:58:36;;;;;;;0.53;0.53;;;;;15.50;98644.00;;;;5114645;28;20492;-81
2022/07/01 09:01:14;;;;;;;0.60;0.60;;;;;15.40;98640.00;;;;5114625;28;20215;-80
2022/07/01 09:03:40;;;;;;;0.50;0.50;;;;;15.40;98633.00;;;;5114703;28;20204;-79
2022/07/01 09:06:13;;;;;;;0.50;0.50;;;;;15.30;98637.00;;;;5114672;28;20688;-82
2022/07/01 09:08:40;;;;;;;0.50;0.50;;;;;15.20;98640.00;;;;5114605;28;20292;-79
2022/07/01 09:11:14;;;;;;;0.50;0.50;;;;;15.40;98635.00;;;;5114227;28;20278;-82
2022/07/01 09:13:43;;;;;;;0.70;0.70;;;;;15.20;98638.00;;;;5114549;28;20438;-81
2022/07/01 09:16:14;;;;;;;0.57;0.57;;;;;15.30;98645.00;;;;5114339;28;20279;-79
2022/07/01 09:19:02;;;;;;;0.60;0.60;;;;;15.50;98627.00;;;;5113990;28;20706;-78
2022/07/01 09:21:31;;;;;;;0.50;0.50;;;;;15.70;98624.00;;;;5114300;28;20559;-77
2022/07/01 09:24:04;;;;;;;0.50;0.50;;;;;15.50;98606.00;;;;5114208;28;20200;-77
2022/07/01 09:26:31;;;;;;;0.43;0.43;;;;;15.70;98582.00;;;;5114620;28;20845;-81
2022/07/01 09:29:01;;;;;;;0.30;0.30;;;;;15.80;98599.00;;;;5114428;28;20648;-80
2022/07/01 09:31:33;;;;;;;0.60;0.60;;;;;15.70;98618.00;;;;5114059;28;20546;-79
2022/07/01 09:34:04;;;;;;;0.60;0.60;;;;;15.60;98626.00;;;;5114042;28;20210;-76
2022/07/01 09:36:31;;;;;;;0.60;0.60;;;;;15.70;98643.00;;;;5114073;28;20202;-80
2022/07/01 09:39:02;;;;;;;0.50;0.50;;;;;15.60;98640.00;;;;5114108;28;20225;-81
2022/07/01 09:41:36;;;;;;;0.57;0.57;;;;;15.60;98633.00;;;;5114291;28;20186;-83
2022/07/01 09:44:08;;;;;;;0.60;0.60;;;;;16.00;98636.00;;;;5096333;28;20667;-80
2022/07/01 09:46:35;;;;;;;0.73;0.73;;;;;16.00;98630.00;;;;5114521;28;20625;-79
2022/07/01 09:49:02;;;;;;;0.60;0.60;;;;;16.10;98632.00;;;;5114482;28;20279;-80
2022/07/01 09:51:31;;;;;;;0.50;0.50;;;;;16.10;98627.00;;;;5114941;28;20214;-80
2022/07/01 09:53:58;;;;;;;0.70;0.70;;;;;16.10;98638.00;;;;5115413;28;20704;-80
2022/07/01 09:56:25;;;;;;;0.87;0.87;;;;;15.90;98636.00;;;;5114909;28;20194;-79
2022/07/01 09:58:52;;;;;;;0.40;0.40;;;;;16.30;98628.00;;;;5113970;28;20198;-79
2022/07/01 10:01:19;;;;;;;0.47;0.47;;;;;16.30;98633.00;;;;5113967;28;20210;-81
2022/07/01 10:03:47;;;;;;;0.50;0.50;;;;;16.60;98632.00;;;;5114254;28;20194;-78
2022/07/01 10:06:38;;;;;;;0.53;0.53;;;;;16.90;98638.00;;;;5113715;28;20218;-78
2022/07/01 10:09:26;;;;;;;0.77;0.77;;;;;16.60;98642.00;;;;5113772;28;20198;-76
2022/07/01 10:12:11;;;;;;;0.47;0.47;;;;;16.60;98641.00;;;;5113613;28;20201;-75
2022/07/01 10:14:40;;;;;;;0.40;0.40;;;;;16.90;98642.00;;;;5113526;28;20313;-75
2022/07/01 10:17:07;;;;;;;0.40;0.40;;;;;17.20;98631.00;;;;5113588;28;20228;-76
2022/07/01 10:19:34;;;;;;;0.70;0.70;;;;;17.70;98649.00;;;;5113506;28;20197;-76
2022/07/01 10:22:22;;;;;;;0.40;0.40;;;;;17.70;98655.00;;;;5114509;28;20222;-82
2022/07/01 10:24:49;;;;;;;0.40;0.40;;;;;17.80;98654.00;;;;5119534;28;20221;-82
2022/07/01 10:27:21;;;;;;;0.70;0.70;;;;;17.90;98661.00;;;;5118552;28;20235;-81
2022/07/01 10:30:05;;;;;;;0.53;0.53;;;;;18.00;98664.00;;;;5114722;28;20198;-77
2022/07/01 10:32:33;;;;;;;0.50;0.50;;;;;18.00;98655.00;;;;5116611;28;20217;-77
2022/07/01 10:35:07;;;;;;;0.70;0.70;;;;;18.00;98652.00;;;;5099044;28;20229;-76
2022/07/01 10:37:34;;;;;;;1.23;0.87;;;;;18.50;98655.00;;;;5116687;28;20222;-77
2022/07/01 10:40:03;;;;;;;0.40;0.40;;;;;18.50;98656.00;;;;5116758;28;20201;-77
2022/07/01 10:42:31;;;;;;;0.50;0.50;;;;;18.60;98669.00;;;;5117074;28;20194;-79
2022/07/01 10:45:04;;;;;;;2.83;1.00;;;;;19.00;98677.00;;;;5117758;28;20216;-77
2022/07/01 10:47:31;;;;;;;0.53;0.53;;;;;19.00;98671.00;;;;5116482;28;20196;-76
2022/07/01 10:50:03;;;;;;;0.80;0.80;;;;;19.00;98680.00;;;;5116847;28;20647;-76
2022/07/01 10:52:30;;;;;;;0.50;0.50;;;;;18.80;98678.00;;;;5116646;28;20621;-77
2022/07/01 10:54:58;;;;;;;0.50;0.50;;;;;18.60;98687.00;;;;5116333;28;20683;-78
2022/07/01 10:57:34;;;;;;;0.40;0.40;;;;;18.50;98689.00;;;;5116561;28;20194;-77
2022/07/01 11:00:33;;;;;;;0.50;0.50;;;;;18.80;98685.00;;;;5116381;28;20691;-77
2022/07/01 11:03:18;;;;;;;0.40;0.40;;;;;18.80;98682.00;;;;5109720;28;20301;-77
2022/07/01 11:05:47;;;;;;;0.60;0.60;;;;;18.90;98676.00;;;;5116252;28;20222;-79
2022/07/01 11:08:16;;;;;;;0.40;0.40;;;;;19.00;98684.00;;;;5116337;28;20207;-78
2022/07/01 11:10:43;;;;;;;0.50;0.50;;;;;19.70;98682.00;;;;5116193;28;20648;-77
2022/07/01 11:13:14;;;;;;;0.30;0.30;;;;;20.00;98679.00;;;;5116498;28;20193;-80
2022/07/01 11:15:42;;;;;;;0.50;0.50;;;;;20.20;98677.00;;;;5116320;28;20222;-79
2022/07/01 11:18:09;;;;;;;0.30;0.30;;;;;20.30;98676.00;;;;5116240;28;20222;-76
2022/07/01 11:20:36;;;;;;;0.40;0.40;;;;;20.20;98678.00;;;;5116113;28;20198;-76
2022/07/01 11:23:03;;;;;;;0.30;0.30;;;;;19.90;98690.00;;;;5115993;28;20305;-77
2022/07/01 11:25:31;;;;;;;0.60;0.60;;;;;20.10;98679.00;;;;5116133;28;20226;-76
2022/07/01 11:27:58;;;;;;;0.40;0.40;;;;;19.90;98676.00;;;;5116076;28;20209;-76
2022/07/01 11:30:25;;;;;;;1.30;1.10;;;;;19.60;98689.00;;;;5115867;28;20221;-77
2022/07/01 11:32:53;;;;;;;0.47;0.47;;;;;19.40;98683.00;;;;5115875;28;20194;-75
2022/07/01 11:41:00;;;;;;;0.33;0.33;;;;;19.40;98691.00;;;;5097909;28;20198;-76
2022/07/01 11:43:29;;;;;;;0.43;0.43;;;;;18.80;98691.00;;;;5115766;28;20222;-75
2022/07/01 11:45:59;;;;;;;0.67;0.67;;;;;18.70;98679.00;;;;5115902;28;20300;-79
2022/07/01 11:48:31;;;;;;;0.80;0.80;;;;;18.80;98682.00;;;;5115580;28;20278;-74
2022/07/01 11:50:59;;;;;;;0.40;0.40;;;;;18.90;98687.00;;;;5115779;28;20190;-76
2022/07/01 11:53:28;;;;;;;0.37;0.37;;;;;18.80;98687.00;;;;5098180;28;20771;-77
2022/07/01 11:55:55;;;;;;;0.60;0.60;;;;;19.10;98681.00;;;;5115352;28;20237;-77
2022/07/01 11:58:24;;;;;;;0.40;0.40;;;;;18.90;98670.00;;;;5115421;28;20194;-76
2022/07/01 12:00:51;;;;;;;0.30;0.30;;;;;19.60;98673.00;;;;5115398;28;20222;-76
2022/07/01 12:03:41;;;;;;;0.43;0.43;;;;;20.20;98678.00;;;;5115537;28;20671;-76
2022/07/01 12:06:08;;;;;;;0.50;0.50;;;;;20.50;98679.00;;;;5107684;28;20634;-76
2022/07/01 12:08:35;;;;;;;0.47;0.47;;;;;21.00;98684.00;;;;5097414;28;20610;-75
2022/07/01 12:11:02;;;;;;;0.70;0.70;;;;;20.90;98669.00;;;;5115297;28;20190;-77
2022/07/01 12:13:36;;;;;;;1.37;1.27;;;;;21.50;98675.00;;;;5115219;28;20214;-78
2022/07/01 12:16:09;;;;;;;0.50;0.50;;;;;21.30;98672.00;;;;5115247;28;20186;-76
2022/07/01 12:18:37;;;;;;;0.40;0.40;;;;;21.50;98673.00;;;;5115240;28;20194;-77
2022/07/01 12:21:06;;;;;;;0.57;0.57;;;;;21.90;98669.00;;;;5115046;28;20245;-77
2022/07/01 12:23:36;;;;;;;0.50;0.50;;;;;22.00;98683.00;;;;5114975;28;20217;-78
2022/07/01 12:26:05;;;;;;;0.45;0.45;;;;;21.80;98684.00;;;;5115187;28;20227;-78
2022/07/01 12:28:33;;;;;;;0.50;0.50;;;;;21.40;98695.00;;;;5115026;28;20197;-79
2022/07/01 12:31:03;;;;;;;0.40;0.40;;;;;21.00;98694.00;;;;5115045;28;20190;-78
2022/07/01 12:33:33;;;;;;;0.70;0.70;;;;;20.70;98692.00;;;;5096858;28;20222;-80
2022/07/01 12:36:04;;;;;;;0.57;0.57;;;;;19.90;98680.00;;;;5114857;28;20537;-78
2022/07/01 12:38:30;;;;;;;0.77;0.77;;;;;20.00;98689.00;;;;5114898;28;20321;-76